Hlavní strana
METAR-TAF:

METAR-TAF

Letiště :

Tunis, Tunisko

zeměpisná šířka: 36-50N, zeměpisná délka: 010-14E, výška: 3 m

Aktuální stav počasí

Zpráva byla vytvořena před 27 minutami, v 05:30 UTC
Jihojihovýchodní vítr 4 kt
Teplota 10°C
Vlhkost vzduchu 100%
Tlak 1018 hPa
Viditelnost: 8000 m
Skoro jasno ve výšce 2000 ft

METAR: DTTA 160530Z 16004KT 8000 FEW020 10/10 Q1018

Čas: 06:57 (05:57 UTC)

Předpověď počasí

Zpráva byla vytvořena před 6 hodinami a 57 minutami, v 23:00 UTC
Předpověď platná od 16 v 00 UTC do 16 v 24 UTC
Jihovýchodní vítr 4 kt
Viditelnost: 8000 m
Skoro jasno ve výšce 2000 ft
Pravděpodobnost 40% :
Dočasný
od 16 v 06 UTC do 16 v 08 UTC
Viditelnost: 2000 m
Skoro jasno ve výšce 1400 ft
kouřmo
Změna
od 16 v 10 UTC do 16 v 12 UTC
Jihojihovýchodní vítr 17 kt
Pravděpodobnost 40% :
Dočasný
od 16 v 15 UTC do 17 v 02 UTC
Jižní vítr 20 kt s nárazy do 30 kt

TAF: DTTA 152300Z 1600/1624 14004KT 8000 FEW020 PROB40 TEMPO 1606/1608 2000 BR FEW014 BECMG 1610/1612 16017KT PROB40 TEMPO 1615/1702 18020G30KT

Stav a předpovědi počasí z více než 4 000 letišť (zprávy METAR a TAF).

Červené a žluté tečky na mapě představují dostupné meteorologické stanice.

Když kurzor umístíte na tečku, zobrazí se název stanice.

Pak kliknutím zobrazíte stav a předpověď počasí.

Chcete-li změnit mapu, kliknutím na zelené tlačítko se znaménkem +mapu přiblížíte, kliknutím na zelené tlačítko se znaménkem – mapu oddálíte a kliknutím na zelené šipky přejdete na sousední mapy.


METAR-TAF: